Time;durP1;ratioP1;P1;durP2;ratioP2;P2;SDS_P1;SDS_P2;PMS_P1;PMS_P2;Temp;Humidity;BMP_temperature;BMP_pressure;BME280_temperature;BME280_humidity;BME280_pressure;Samples;Min_cycle;Max_cycle;Signal;HPM_P1;HPM_P2
2023/12/19 00:01:36;;;;;;;;;;;;;;;1.33;100.00;97695.06;5065109;28;19961;-73
2023/12/19 00:04:03;;;;;;;;;;;;;;;1.33;100.00;97699.44;5064804;28;20224;-73
2023/12/19 00:06:29;;;;;;;;;;;;;;;1.30;100.00;97697.91;5064521;28;20272;-73
2023/12/19 00:08:55;;;;;;;;;;;;;;;1.29;100.00;97695.47;5064703;28;19965;-74
2023/12/19 00:11:21;;;;;;;;;;;;;;;1.26;100.00;97675.88;5065014;28;19956;-81
2023/12/19 00:13:47;;;;;;;;;;;;;;;1.25;100.00;97681.16;5065248;28;19953;-72
2023/12/19 00:16:13;;;;;;;;;;;;;;;1.23;100.00;97688.22;5064773;28;20053;-79
2023/12/19 00:18:38;;;;;;;;;;;;;;;1.20;100.00;97684.94;5064772;28;19988;-80
2023/12/19 00:21:04;;;;;;;;;;;;;;;1.17;100.00;97689.53;5064834;28;19955;-79
2023/12/19 00:23:30;;;;;;;;;;;;;;;1.15;100.00;97688.84;5065037;28;19959;-79
2023/12/19 00:25:57;;;;;;;;;;;;;;;1.12;100.00;97674.44;5064807;28;19962;-79
2023/12/19 00:28:24;;;;;;;;;;;;;;;1.10;100.00;97672.91;5064731;28;19951;-79
2023/12/19 00:30:49;;;;;;;;;;;;;;;1.06;100.00;97672.34;5064798;28;19960;-72
2023/12/19 00:33:15;;;;;;;;;;;;;;;1.02;100.00;97671.78;5064926;28;19938;-70
2023/12/19 00:35:41;;;;;;;;;;;;;;;0.99;100.00;97661.72;5064750;28;19964;-69
2023/12/19 00:38:07;;;;;;;;;;;;;;;0.96;100.00;97658.56;5064781;28;19996;-69
2023/12/19 00:40:33;;;;;;;;;;;;;;;0.90;100.00;97646.97;5064211;28;19962;-69
2023/12/19 00:42:59;;;;;;;;;;;;;;;0.86;100.00;97639.59;5064402;28;19958;-70
2023/12/19 00:45:25;;;;;;;;;;;;;;;0.86;100.00;97639.59;5064339;28;20241;-70
2023/12/19 00:47:50;;;;;;;;;;;;;;;0.85;100.00;97620.72;5064119;28;19956;-70
2023/12/19 00:50:16;;;;;;;;;;;;;;;0.87;100.00;97630.91;5064247;28;19974;-73
2023/12/19 00:52:42;;;;;;;;;;;;;;;0.85;100.00;97620.72;5064202;28;20287;-72
2023/12/19 00:55:08;;;;;;;;;;;;;;;0.83;100.00;97624.38;5064238;28;19955;-72
2023/12/19 00:57:34;;;;;;;;;;;;;;;0.83;100.00;97621.78;5064316;28;19964;-72
2023/12/19 01:00:00;;;;;;;;;;;;;;;0.81;100.00;97625.31;5064295;28;19950;-72
2023/12/19 01:02:27;;;;;;;;;;;;;;;0.77;100.00;97621.34;5064254;28;19956;-72
2023/12/19 01:04:56;;;;;;;;;;;;;;;0.71;100.00;97633.94;5063814;28;19940;-71
2023/12/19 01:07:22;;;;;;;;;;;;;;;0.68;100.00;97634.22;5063836;28;19958;-76
2023/12/19 01:09:48;;;;;;;;;;;;;;;0.67;100.00;97606.75;5063726;28;19957;-69
2023/12/19 01:12:14;;;;;;;;;;;;;;;0.71;100.00;97592.63;5063874;28;19953;-69
2023/12/19 01:14:39;;;;;;;;;;;;;;;0.74;100.00;97600.94;5064271;28;19960;-69
2023/12/19 01:17:05;;;;;;;;;;;;;;;0.80;100.00;97594.47;5063718;28;20019;-69
2023/12/19 01:19:31;;;;;;;;;;;;;;;0.83;100.00;97607.09;5063302;28;20141;-68
2023/12/19 01:21:58;;;;;;;;;;;;;;;0.82;100.00;97608.06;5064114;28;20235;-68
2023/12/19 01:24:24;;;;;;;;;;;;;;;0.81;100.00;97594.31;5063487;28;19966;-69
2023/12/19 01:26:51;;;;;;;;;;;;;;;0.81;100.00;97596.09;5063924;28;19950;-69
2023/12/19 01:29:20;;;;;;;;;;;;;;;0.81;100.00;97607.22;5063967;28;19961;-77
2023/12/19 01:31:46;;;;;;;;;;;;;;;0.83;100.00;97601.13;5063929;28;19938;-77
2023/12/19 01:34:12;;;;;;;;;;;;;;;0.83;100.00;97606.28;5063919;28;19958;-77
2023/12/19 01:36:38;;;;;;;;;;;;;;;0.81;100.00;97609.81;5063422;28;20015;-78
2023/12/19 01:39:04;;;;;;;;;;;;;;;0.80;100.00;97602.22;5063466;28;19956;-78
2023/12/19 01:41:30;;;;;;;;;;;;;;;0.76;100.00;97596.47;5064004;28;19973;-77
2023/12/19 01:43:56;;;;;;;;;;;;;;;0.75;100.00;97592.25;5063812;28;20233;-72
2023/12/19 01:46:22;;;;;;;;;;;;;;;0.73;100.00;97591.56;5063868;28;19961;-69
2023/12/19 01:48:48;;;;;;;;;;;;;;;0.66;100.00;97593.03;5063542;28;20236;-81
2023/12/19 01:51:14;;;;;;;;;;;;;;;0.62;100.00;97596.00;5063997;28;19952;-80
2023/12/19 01:53:41;;;;;;;;;;;;;;;0.56;100.00;97610.22;5063648;28;19983;-81
2023/12/19 01:56:08;;;;;;;;;;;;;;;0.52;100.00;97603.66;5063656;28;19954;-82
2023/12/19 01:58:34;;;;;;;;;;;;;;;0.49;100.00;97612.47;5063635;28;19967;-80
2023/12/19 02:01:00;;;;;;;;;;;;;;;0.46;100.00;97630.78;5063612;28;19950;-79
2023/12/19 02:03:26;;;;;;;;;;;;;;;0.44;100.00;97624.13;5063783;28;19967;-69
2023/12/19 02:05:52;;;;;;;;;;;;;;;0.44;100.00;97590.56;5063408;28;19955;-70
2023/12/19 02:08:19;;;;;;;;;;;;;;;0.47;100.00;97592.91;5063353;28;20011;-70
2023/12/19 02:10:45;;;;;;;;;;;;;;;0.49;100.00;97581.50;5063754;28;20098;-70
2023/12/19 02:13:10;;;;;;;;;;;;;;;0.55;100.00;97609.41;5063409;28;19961;-70
2023/12/19 02:15:37;;;;;;;;;;;;;;;0.55;100.00;97611.97;5063425;28;19961;-71
2023/12/19 02:18:12;;;;;;;;;;;;;;;0.56;100.00;97615.38;5063363;28;19969;-70
2023/12/19 02:20:38;;;;;;;;;;;;;;;0.54;100.00;97617.25;5063564;28;19953;-72
2023/12/19 02:23:04;;;;;;;;;;;;;;;0.52;100.00;97619.97;5063631;28;20236;-82
2023/12/19 02:25:29;;;;;;;;;;;;;;;0.50;100.00;97603.78;5063594;28;19971;-73
2023/12/19 02:27:57;;;;;;;;;;;;;;;0.51;100.00;97583.97;5063566;28;19958;-72
2023/12/19 02:30:23;;;;;;;;;;;;;;;0.52;100.00;97598.50;5063518;28;20141;-73
2023/12/19 02:32:48;;;;;;;;;;;;;;;0.53;100.00;97597.56;5067289;28;20015;-74
2023/12/19 02:35:14;;;;;;;;;;;;;;;0.51;100.00;97597.69;5067115;28;20022;-73
2023/12/19 02:37:41;;;;;;;;;;;;;;;0.50;100.00;97590.88;5066684;28;20005;-73
2023/12/19 02:40:07;;;;;;;;;;;;;;;0.52;100.00;97601.88;5065971;28;19968;-70
2023/12/19 02:42:33;;;;;;;;;;;;;;;0.51;100.00;97608.00;5067001;28;19966;-82
2023/12/19 02:44:59;;;;;;;;;;;;;;;0.52;100.00;97596.72;5066644;28;19959;-82
2023/12/19 02:47:25;;;;;;;;;;;;;;;0.52;100.00;97594.16;5066696;28;19956;-82
2023/12/19 02:49:51;;;;;;;;;;;;;;;0.53;100.00;97582.09;5066920;28;19993;-83
2023/12/19 02:52:16;;;;;;;;;;;;;;;0.53;100.00;97582.91;5066852;28;19948;-82
2023/12/19 02:54:42;;;;;;;;;;;;;;;0.53;100.00;97567.41;5066713;28;20229;-83
2023/12/19 02:57:08;;;;;;;;;;;;;;;0.55;100.00;97562.13;5065357;28;19964;-73
2023/12/19 02:59:34;;;;;;;;;;;;;;;0.57;100.00;97558.47;5066135;28;20005;-73
2023/12/19 03:02:00;;;;;;;;;;;;;;;0.58;100.00;97541.22;5066569;28;19983;-78
2023/12/19 03:04:25;;;;;;;;;;;;;;;0.58;100.00;97513.63;5066195;28;19952;-77
2023/12/19 03:06:51;;;;;;;;;;;;;;;0.61;100.00;97512.56;5066174;28;19966;-78
2023/12/19 03:09:17;;;;;;;;;;;;;;;0.62;100.00;97521.13;5066013;28;19961;-78
2023/12/19 03:11:57;;;;;;;;;;;;;;;0.62;100.00;97519.34;5066584;28;19954;-80
2023/12/19 03:14:22;;;;;;;;;;;;;;;0.61;100.00;97517.72;5066239;28;19963;-81
2023/12/19 03:16:48;;;;;;;;;;;;;;;0.62;100.00;97498.69;5066186;28;19957;-74
2023/12/19 03:19:14;;;;;;;;;;;;;;;0.63;100.00;97497.78;5065660;28;19958;-70
2023/12/19 03:21:40;;;;;;;;;;;;;;;0.60;100.00;97493.66;5066365;28;19977;-70
2023/12/19 03:24:06;;;;;;;;;;;;;;;0.62;100.00;97508.22;5066175;28;19957;-70
2023/12/19 03:26:32;;;;;;;;;;;;;;;0.59;100.00;97510.13;5066126;28;19962;-70
2023/12/19 03:28:57;;;;;;;;;;;;;;;0.58;100.00;97492.16;5065609;28;19974;-69
2023/12/19 03:31:23;;;;;;;;;;;;;;;0.57;100.00;97495.69;5065977;28;19958;-70
2023/12/19 03:33:50;;;;;;;;;;;;;;;0.54;100.00;97507.09;5065939;28;19954;-70
2023/12/19 03:36:16;;;;;;;;;;;;;;;0.54;100.00;97506.28;5065574;28;19951;-72
2023/12/19 03:38:42;;;;;;;;;;;;;;;0.52;100.00;97501.22;5065438;28;20000;-73
2023/12/19 03:41:08;;;;;;;;;;;;;;;0.52;100.00;97506.38;5065163;28;19957;-73
2023/12/19 03:43:34;;;;;;;;;;;;;;;0.53;100.00;97515.78;5065520;28;20134;-73
2023/12/19 03:46:02;;;;;;;;;;;;;;;0.54;100.00;97522.56;5065759;28;19954;-74
2023/12/19 03:48:28;;;;;;;;;;;;;;;0.54;100.00;97508.84;5065477;28;19955;-73
2023/12/19 03:50:54;;;;;;;;;;;;;;;0.53;100.00;97497.72;5065551;28;20148;-73
2023/12/19 03:53:21;;;;;;;;;;;;;;;0.54;100.00;97496.75;5065579;28;20252;-72
2023/12/19 03:55:47;;;;;;;;;;;;;;;0.54;100.00;97501.09;5065378;28;19980;-82
2023/12/19 03:58:13;;;;;;;;;;;;;;;0.53;100.00;97500.31;5064929;28;20148;-79
2023/12/19 04:00:39;;;;;;;;;;;;;;;0.55;100.00;97511.31;5065004;28;20053;-79
2023/12/19 04:03:04;;;;;;;;;;;;;;;0.53;100.00;97513.19;5064893;28;19959;-79
2023/12/19 04:05:30;;;;;;;;;;;;;;;0.53;100.00;97515.78;5065502;28;19961;-80
2023/12/19 04:07:56;;;;;;;;;;;;;;;0.51;100.00;97520.25;5064892;28;19964;-81
2023/12/19 04:10:22;;;;;;;;;;;;;;;0.49;100.00;97522.16;5064918;28;20123;-75
2023/12/19 04:12:48;;;;;;;;;;;;;;;0.46;100.00;97519.00;5065323;28;20215;-74
2023/12/19 04:15:14;;;;;;;;;;;;;;;0.43;100.00;97509.75;5064923;28;19955;-69
2023/12/19 04:17:40;;;;;;;;;;;;;;;0.40;100.00;97512.59;5064887;28;19962;-69
2023/12/19 04:20:06;;;;;;;;;;;;;;;0.38;100.00;97499.00;5064933;28;19955;-69
2023/12/19 04:22:31;;;;;;;;;;;;;;;0.38;100.00;97506.75;5064913;28;19952;-69
2023/12/19 04:24:57;;;;;;;;;;;;;;;0.35;100.00;97497.47;5064854;28;19955;-70
2023/12/19 04:27:23;;;;;;;;;;;;;;;0.35;100.00;97500.06;5064845;28;19946;-69
2023/12/19 04:29:50;;;;;;;;;;;;;;;0.33;100.00;97486.47;5065094;28;20021;-71
2023/12/19 04:32:16;;;;;;;;;;;;;;;0.32;100.00;97487.44;5064416;28;20132;-70
2023/12/19 04:34:42;;;;;;;;;;;;;;;0.31;100.00;97484.97;5064445;28;20033;-70
2023/12/19 04:37:08;;;;;;;;;;;;;;;0.30;100.00;97480.75;5064387;28;19956;-71
2023/12/19 04:39:34;;;;;;;;;;;;;;;0.30;100.00;97478.19;5064391;28;20035;-70
2023/12/19 04:41:59;;;;;;;;;;;;;;;0.30;100.00;97473.03;5064423;28;19964;-70
2023/12/19 04:44:25;;;;;;;;;;;;;;;0.32;100.00;97479.69;5064675;28;19950;-72
2023/12/19 04:46:51;;;;;;;;;;;;;;;0.32;100.00;97460.81;5064336;28;20128;-72
2023/12/19 04:49:17;;;;;;;;;;;;;;;0.28;100.00;97460.25;5064544;28;20131;-70
2023/12/19 04:51:43;;;;;;;;;;;;;;;0.27;100.00;97442.31;5064658;28;19958;-78
2023/12/19 04:54:09;;;;;;;;;;;;;;;0.26;100.00;97456.97;5063795;28;20000;-77
2023/12/19 04:56:37;;;;;;;;;;;;;;;0.27;100.00;97470.69;5064987;28;19968;-77
2023/12/19 04:59:04;;;;;;;;;;;;;;;0.25;100.00;97468.22;5064045;28;19971;-78
2023/12/19 05:01:29;;;;;;;;;;;;;;;0.26;100.00;97461.31;5064069;28;19957;-78
2023/12/19 05:03:55;;;;;;;;;;;;;;;0.26;100.00;97469.88;5064338;28;19967;-77
2023/12/19 05:06:21;;;;;;;;;;;;;;;0.25;100.00;97463.06;5064065;28;19956;-72
2023/12/19 05:08:48;;;;;;;;;;;;;;;0.26;100.00;97458.75;5063989;28;19958;-71
2023/12/19 05:11:14;;;;;;;;;;;;;;;0.25;100.00;97465.63;5064063;28;19962;-70
2023/12/19 05:13:40;;;;;;;;;;;;;;;0.27;100.00;97462.94;5064104;28;19959;-71
2023/12/19 05:16:12;;;;;;;;;;;;;;;0.26;100.00;97456.16;5064067;28;19951;-71
2023/12/19 05:18:40;;;;;;;;;;;;;;;0.26;100.00;97461.31;5064206;28;19963;-72
2023/12/19 05:21:06;;;;;;;;;;;;;;;0.25;100.00;97460.47;5064147;28;19960;-71
2023/12/19 05:23:32;;;;;;;;;;;;;;;0.25;100.00;97467.41;5064122;28;20226;-72
2023/12/19 05:25:58;;;;;;;;;;;;;;;0.25;100.00;97470.00;5064265;28;19950;-77
2023/12/19 05:28:23;;;;;;;;;;;;;;;0.26;100.00;97471.66;5064223;28;19996;-69
2023/12/19 05:30:49;;;;;;;;;;;;;;;0.24;100.00;97473.53;5063821;28;19975;-69
2023/12/19 05:33:15;;;;;;;;;;;;;;;0.24;100.00;97469.19;5063001;28;20242;-70
2023/12/19 05:35:41;;;;;;;;;;;;;;;0.24;100.00;97469.19;5063523;28;19957;-69
2023/12/19 05:38:07;;;;;;;;;;;;;;;0.24;100.00;97463.22;5064055;28;19966;-69
2023/12/19 05:40:34;;;;;;;;;;;;;;;0.22;100.00;97442.69;5063943;28;19956;-68
2023/12/19 05:43:00;;;;;;;;;;;;;;;0.21;100.00;97446.22;5064043;28;19959;-69
2023/12/19 05:45:26;;;;;;;;;;;;;;;0.21;100.00;97456.56;5063932;28;19971;-76
2023/12/19 05:47:52;;;;;;;;;;;;;;;0.18;100.00;97447.28;5063956;28;19949;-73
2023/12/19 05:50:18;;;;;;;;;;;;;;;0.16;100.00;97433.69;5063879;28;20225;-73
2023/12/19 05:52:44;;;;;;;;;;;;;;;0.15;100.00;97426.91;5063718;28;19953;-73
2023/12/19 05:55:09;;;;;;;;;;;;;;;0.15;100.00;97426.09;5063432;28;20010;-73
2023/12/19 05:57:37;;;;;;;;;;;;;;;0.16;100.00;97432.88;5064100;28;19999;-73
2023/12/19 06:00:03;;;;;;;;;;;;;;;0.18;100.00;97443.91;5064109;28;20169;-73
2023/12/19 06:02:28;;;;;;;;;;;;;;;0.16;100.00;97446.59;5063739;28;19968;-71
2023/12/19 06:04:54;;;;;;;;;;;;;;;0.14;100.00;97445.91;5065127;28;20015;-77
2023/12/19 06:07:20;;;;;;;;;;;;;;;0.10;100.00;97439.38;5067376;28;19963;-78
2023/12/19 06:09:46;;;;;;;;;;;;;;;0.09;100.00;97419.69;5067367;28;19957;-78
2023/12/19 06:12:13;;;;;;;;;;;;;;;0.10;100.00;97400.69;5067408;28;19957;-81
2023/12/19 06:14:39;;;;;;;;;;;;;;;0.12;100.00;97408.28;5067401;28;19956;-81
2023/12/19 06:17:05;;;;;;;;;;;;;;;0.12;100.00;97427.16;5067401;28;20263;-80
2023/12/19 06:19:30;;;;;;;;;;;;;;;0.09;100.00;97424.84;5067401;28;19969;-69
2023/12/19 06:21:56;;;;;;;;;;;;;;;0.07;100.00;97433.66;5067466;28;19961;-79
2023/12/19 06:24:22;;;;;;;;;;;;;;;0.05;100.00;97433.78;5066886;28;19942;-70
2023/12/19 06:26:48;;;;;;;;;;;;;;;0.04;100.00;97437.28;5067518;28;19955;-70
2023/12/19 06:29:14;;;;;;;;;;;;;;;0.03;100.00;97445.19;5066835;28;19969;-70
2023/12/19 06:31:42;;;;;;;;;;;;;;;0.00;100.00;97441.09;5066861;28;20014;-70
2023/12/19 06:34:07;;;;;;;;;;;;;;;-0.04;100.00;97443.09;5066981;28;20249;-70
2023/12/19 06:36:33;;;;;;;;;;;;;;;-0.10;100.00;97443.59;5066862;28;20019;-70
2023/12/19 06:39:00;;;;;;;;;;;;;;;-0.15;100.00;97426.88;5066964;28;19962;-71
2023/12/19 06:41:26;;;;;;;;;;;;;;;-0.21;100.00;97435.91;5067099;28;19968;-70
2023/12/19 06:43:52;;;;;;;;;;;;;;;-0.11;100.00;97462.56;5066615;28;20021;-71
2023/12/19 06:46:18;;;;;;;;;;;;;;;0.10;100.00;97467.72;5067021;28;19961;-70
2023/12/19 06:48:44;;;;;;;;;;;;;;;0.33;100.00;97460.66;5066875;28;19963;-70
2023/12/19 06:51:21;;;;;;;;;;;;;;;0.56;100.00;97457.91;5066901;28;20320;-70
2023/12/19 06:53:46;;;;;;;;;;;;;;;0.72;100.00;97453.09;5066363;28;19944;-70
2023/12/19 06:56:12;;;;;;;;;;;;;;;0.90;100.00;97465.38;5066820;28;19960;-71
2023/12/19 06:58:38;;;;;;;;;;;;;;;0.99;100.00;97451.69;5066882;28;19964;-74
2023/12/19 07:01:04;;;;;;;;;;;;;;;0.90;100.00;97418.88;5067189;28;20026;-69
2023/12/19 07:03:32;;;;;;;;;;;;;;;0.74;100.00;97406.50;5065081;28;20164;-69
2023/12/19 07:05:57;;;;;;;;;;;;;;;0.59;100.00;97406.06;5066316;28;20193;-70
2023/12/19 07:08:23;;;;;;;;;;;;;;;0.44;100.00;97408.16;5066297;28;20011;-68
2023/12/19 07:10:51;;;;;;;;;;;;;;;0.33;100.00;97410.84;5066320;28;19959;-70
2023/12/19 07:13:17;;;;;;;;;;;;;;;0.22;100.00;97392.88;5066339;28;19956;-69
2023/12/19 07:15:43;;;;;;;;;;;;;;;0.15;100.00;97400.31;5066174;28;19981;-71
2023/12/19 07:18:09;;;;;;;;;;;;;;;0.06;100.00;97395.91;5065904;28;20242;-71
2023/12/19 07:20:34;;;;;;;;;;;;;;;-0.01;100.00;97393.03;5066215;28;19980;-72
2023/12/19 07:23:00;;;;;;;;;;;;;;;-0.04;100.00;97359.78;5065803;28;20025;-72
2023/12/19 07:25:26;;;;;;;;;;;;;;;-0.04;100.00;97377.81;5066253;28;19966;-71
2023/12/19 07:27:52;;;;;;;;;;;;;;;-0.06;100.00;97383.09;5066209;28;19963;-71
2023/12/19 07:30:18;;;;;;;;;;;;;;;-0.07;100.00;97376.28;5066115;28;19954;-71
2023/12/19 07:32:44;;;;;;;;;;;;;;;-0.08;100.00;97385.00;5065767;28;20133;-71
2023/12/19 07:35:10;;;;;;;;;;;;;;;-0.07;100.00;97378.06;5066225;28;19971;-70
2023/12/19 07:37:36;;;;;;;;;;;;;;;-0.06;100.00;97385.69;5066016;28;19953;-70
2023/12/19 07:40:02;;;;;;;;;;;;;;;-0.06;100.00;97383.09;5065708;28;19971;-70
2023/12/19 07:42:28;;;;;;;;;;;;;;;-0.04;100.00;97376.06;5065785;28;19989;-70
2023/12/19 07:44:54;;;;;;;;;;;;;;;-0.04;100.00;97370.09;5065854;28;20012;-70
2023/12/19 07:47:20;;;;;;;;;;;;;;;-0.04;100.00;97380.41;5065862;28;20240;-70
2023/12/19 07:49:45;;;;;;;;;;;;;;;-0.04;100.00;97390.72;5065802;28;20222;-70
2023/12/19 07:52:11;;;;;;;;;;;;;;;0.02;100.00;97387.59;5065130;28;19937;-84
2023/12/19 07:54:37;;;;;;;;;;;;;;;0.13;100.00;97395.28;5047905;28;19957;-72
2023/12/19 07:57:03;;;;;;;;;;;;;;;0.27;100.00;97375.22;5065612;28;19957;-73
2023/12/19 07:59:29;;;;;;;;;;;;;;;0.45;100.00;97386.56;5065176;28;19965;-73
2023/12/19 08:01:55;;;;;;;;;;;;;;;0.69;100.00;97359.59;5065133;28;19974;-73
2023/12/19 08:04:21;;;;;;;;;;;;;;;0.91;100.00;97354.19;5065593;28;20023;-73
2023/12/19 08:06:47;;;;;;;;;;;;;;;1.09;100.00;97376.75;5064237;28;19960;-73
2023/12/19 08:09:14;;;;;;;;;;;;;;;1.28;100.00;97312.19;5065288;28;19959;-73
2023/12/19 08:11:40;;;;;;;;;;;;;;;1.49;100.00;97309.44;5065212;28;20142;-72
2023/12/19 08:14:07;;;;;;;;;;;;;;;1.73;100.00;97329.63;5065189;28;19955;-83
2023/12/19 08:16:33;;;;;;;;;;;;;;;1.97;100.00;97323.16;5065208;28;19961;-82
2023/12/19 08:18:59;;;;;;;;;;;;;;;2.18;100.00;97303.06;5065587;28;19971;-79
2023/12/19 08:21:25;;;;;;;;;;;;;;;2.37;100.00;97284.03;5064702;28;20050;-81
2023/12/19 08:23:51;;;;;;;;;;;;;;;2.55;100.00;97272.88;5063865;28;20010;-79
2023/12/19 08:26:17;;;;;;;;;;;;;;;2.71;100.00;97280.81;5065274;28;19949;-79
2023/12/19 08:28:43;;;;;;;;;;;;;;;2.91;100.00;97314.34;5064933;28;20274;-80
2023/12/19 08:31:09;;;;;;;;;;;;;;;3.07;100.00;97251.44;5064662;28;19954;-73
2023/12/19 08:33:35;;;;;;;;;;;;;;;3.16;100.00;97264.34;5064626;28;19958;-79
2023/12/19 08:36:01;;;;;;;;;;;;;;;3.28;100.00;97245.97;5064590;28;19986;-78
2023/12/19 08:38:27;;;;;;;;;;;;;;;3.38;100.00;97259.63;5064446;28;19988;-79
2023/12/19 08:40:52;;;;;;;;;;;;;;;3.48;100.00;97236.19;5064678;28;19958;-78
2023/12/19 08:43:19;;;;;;;;;;;;;;;3.56;100.00;97210.28;5064652;28;20054;-78
2023/12/19 08:45:47;;;;;;;;;;;;;;;3.61;100.00;97210.63;5064707;28;20228;-77
2023/12/19 08:48:13;;;;;;;;;;;;;;;3.68;100.00;97201.28;5064682;28;19958;-77
2023/12/19 08:50:39;;;;;;;;;;;;;;;3.78;98.74;97180.38;5064559;28;19950;-76
2023/12/19 08:53:05;;;;;;;;;;;;;;;3.91;100.00;97195.53;5064568;28;19967;-77
2023/12/19 08:55:30;;;;;;;;;;;;;;;4.05;100.00;97207.88;5064558;28;19952;-76
2023/12/19 08:57:57;;;;;;;;;;;;;;;4.12;91.26;97154.38;5064089;28;20258;-77
2023/12/19 09:00:22;;;;;;;;;;;;;;;4.19;96.04;97170.94;5064597;28;20265;-77
2023/12/19 09:02:49;;;;;;;;;;;;;;;4.33;96.67;97177.31;5064202;28;19953;-76
2023/12/19 09:05:15;;;;;;;;;;;;;;;4.46;96.02;97162.03;5064132;28;20256;-72
2023/12/19 09:07:42;;;;;;;;;;;;;;;4.58;93.75;97146.16;5063851;28;19956;-70
2023/12/19 09:10:08;;;;;;;;;;;;;;;4.73;92.62;97156.72;5064255;28;19952;-76
2023/12/19 09:12:34;;;;;;;;;;;;;;;4.85;90.78;97142.38;5064315;28;19967;-76
2023/12/19 09:15:02;;;;;;;;;;;;;;;4.99;92.19;97144.31;5064404;28;19975;-76
2023/12/19 09:17:28;;;;;;;;;;;;;;;5.26;100.00;97342.56;5063734;28;19955;-75
2023/12/19 09:19:55;;;;;;;;;;;;;;;5.62;89.52;97124.44;5064112;28;19957;-76
2023/12/19 09:22:21;;;;;;;;;;;;;;;5.77;87.96;97123.75;5063792;28;19968;-77
2023/12/19 09:24:47;;;;;;;;;;;;;;;5.81;87.67;97133.63;5063911;28;19958;-74
2023/12/19 09:27:12;;;;;;;;;;;;;;;5.76;88.19;97229.66;5063828;28;19951;-75
2023/12/19 09:29:39;;;;;;;;;;;;;;;5.91;89.63;97234.97;5064341;28;19952;-75
2023/12/19 09:32:07;;;;;;;;;;;;;;;6.05;87.72;97217.84;5063857;28;19956;-76
2023/12/19 09:34:33;;;;;;;;;;;;;;;6.19;87.90;97214.50;5063941;28;19954;-76
2023/12/19 09:36:59;;;;;;;;;;;;;;;6.27;82.90;97196.22;5064030;28;19968;-76
2023/12/19 09:39:25;;;;;;;;;;;;;;;6.25;85.20;97213.03;5064488;28;19969;-76
2023/12/19 09:41:51;;;;;;;;;;;;;;;6.29;92.93;97228.13;5068132;28;19958;-74
2023/12/19 09:44:17;;;;;;;;;;;;;;;6.29;92.17;97220.31;5067629;28;20133;-71
2023/12/19 09:46:47;;;;;;;;;;;;;;;6.34;86.08;97212.00;5067614;28;19963;-76
2023/12/19 09:49:13;;;;;;;;;;;;;;;6.44;83.71;97186.53;5067492;28;20236;-75
2023/12/19 09:51:42;;;;;;;;;;;;;;;6.62;87.07;97195.88;5067950;28;19957;-74
2023/12/19 09:54:09;;;;;;;;;;;;;;;6.86;85.57;97187.84;5067876;28;19958;-75
2023/12/19 09:56:35;;;;;;;;;;;;;;;7.03;82.16;97169.44;5067688;28;20237;-75
2023/12/19 09:59:02;;;;;;;;;;;;;;;7.15;87.85;97173.25;5067445;28;19961;-74
2023/12/19 10:01:28;;;;;;;;;;;;;;;7.23;84.29;97167.16;5067803;28;19964;-72
2023/12/19 10:03:55;;;;;;;;;;;;;;;7.22;83.93;97166.31;5067545;28;19993;-73
2023/12/19 10:06:22;;;;;;;;;;;;;;;7.13;81.25;97172.59;5067520;28;19956;-71
2023/12/19 10:08:50;;;;;;;;;;;;;;;7.05;84.17;97183.13;5067528;28;19962;-73
2023/12/19 10:11:21;;;;;;;;;;;;;;;6.91;86.30;97195.97;5067707;28;20259;-73
2023/12/19 10:13:47;;;;;;;;;;;;;;;6.88;85.78;97206.72;5068110;28;19956;-73
2023/12/19 10:16:20;;;;;;;;;;;;;;;6.91;91.21;97221.22;5066989;28;19946;-73
2023/12/19 10:18:56;;;;;;;;;;;;;;;6.97;95.74;97230.13;5067194;28;19964;-76
2023/12/19 10:21:23;;;;;;;;;;;;;;;7.30;100.00;97246.31;5067398;28;20142;-70
2023/12/19 10:23:48;;;;;;;;;;;;;;;7.56;92.98;97188.50;5067082;28;19956;-69
2023/12/19 10:26:15;;;;;;;;;;;;;;;7.65;89.03;97183.97;5067290;28;20002;-69
2023/12/19 10:28:42;;;;;;;;;;;;;;;7.66;89.74;97188.19;5067343;28;20132;-69
2023/12/19 10:31:11;;;;;;;;;;;;;;;7.60;79.78;97168.03;5067037;28;19960;-69
2023/12/19 10:33:45;;;;;;;;;;;;;;;7.53;87.03;97187.03;5067133;28;19958;-69
2023/12/19 10:36:30;;;;;;;;;;;;;;;7.45;88.04;97187.13;5067162;28;19969;-69
2023/12/19 10:38:57;;;;;;;;;;;;;;;7.35;82.03;97164.88;5067237;28;19969;-74
2023/12/19 10:41:23;;;;;;;;;;;;;;;7.22;86.39;97175.94;5066707;28;19956;-74
2023/12/19 10:43:53;;;;;;;;;;;;;;;7.09;85.67;97166.94;5066779;28;19998;-76
2023/12/19 10:46:24;;;;;;;;;;;;;;;6.98;91.19;97187.44;5066616;28;19959;-75
2023/12/19 10:48:51;;;;;;;;;;;;;;;6.91;94.54;97184.72;5067041;28;19959;-74
2023/12/19 10:51:21;;;;;;;;;;;;;;;6.84;94.98;97176.78;5065349;28;19966;-74
2023/12/19 10:53:58;;;;;;;;;;;;;;;6.80;87.86;97159.06;5066874;28;19963;-75
2023/12/19 10:56:24;;;;;;;;;;;;;;;6.73;89.42;97160.75;5066906;28;19963;-74
2023/12/19 10:58:55;;;;;;;;;;;;;;;6.66;91.10;97171.06;5066633;28;19975;-70
2023/12/19 11:01:22;;;;;;;;;;;;;;;6.61;91.98;97155.94;5066182;28;19947;-70
2023/12/19 11:03:53;;;;;;;;;;;;;;;6.56;90.73;97155.66;5066875;28;19961;-70
2023/12/19 11:06:22;;;;;;;;;;;;;;;6.52;90.99;97162.22;5066530;28;19961;-70
2023/12/19 11:08:50;;;;;;;;;;;;;;;6.53;94.32;97149.97;5066164;28;19963;-71
2023/12/19 11:11:23;;;;;;;;;;;;;;;6.55;95.18;97154.06;5066239;28;19964;-70
2023/12/19 11:13:51;;;;;;;;;;;;;;;6.60;96.53;97154.34;5066136;28;19955;-74
2023/12/19 11:16:23;;;;;;;;;;;;;;;6.70;97.11;97167.13;5066283;28;19957;-73
2023/12/19 11:18:55;;;;;;;;;;;;;;;6.83;95.97;97156.91;5066220;28;19958;-73
2023/12/19 11:21:26;;;;;;;;;;;;;;;6.99;92.98;97149.91;5066237;28;19958;-73
2023/12/19 11:24:01;;;;;;;;;;;;;;;7.18;93.35;97133.78;5066368;28;19994;-73
2023/12/19 11:26:48;;;;;;;;;;;;;;;7.31;85.18;97107.06;5066399;28;19955;-72
2023/12/19 11:29:54;;;;;;;;;;;;;;;7.39;89.92;97120.00;5051453;28;20149;-72
2023/12/19 11:32:28;;;;;;;;;;;;;;;7.43;93.50;97126.50;4985201;28;19975;-72
2023/12/19 11:35:05;;;;;;;;;;;;;;;7.50;100.00;97157.88;4984528;28;19967;-71
2023/12/19 11:37:31;;;;;;;;;;;;;;;7.71;97.02;97104.94;5034486;28;19973;-69
2023/12/19 11:39:57;;;;;;;;;;;;;;;7.86;94.34;97094.47;5065483;28;19966;-70
2023/12/19 11:42:38;;;;;;;;;;;;;;;7.98;93.30;97079.94;5065335;28;19963;-68
2023/12/19 11:45:24;;;;;;;;;;;;;;;8.00;85.02;97064.03;5065578;28;19952;-69
2023/12/19 11:47:50;;;;;;;;;;;;;;;8.07;88.60;97076.19;5051669;28;19965;-69
2023/12/19 11:50:34;;;;;;;;;;;;;;;8.29;86.98;97063.13;5065695;28;19968;-69
2023/12/19 11:53:00;;;;;;;;;;;;;;;8.33;85.37;97065.16;5065169;28;20132;-75
2023/12/19 11:55:26;;;;;;;;;;;;;;;8.20;86.04;97075.50;5065215;28;20028;-70
2023/12/19 11:57:51;;;;;;;;;;;;;;;8.03;90.26;97092.41;5065876;28;19959;-69
2023/12/19 12:00:19;;;;;;;;;;;;;;;7.70;93.23;97098.09;5065677;28;19970;-69
2023/12/19 12:02:45;;;;;;;;;;;;;;;7.34;94.70;97098.84;5065196;28;19966;-69
2023/12/19 12:05:12;;;;;;;;;;;;;;;6.96;93.46;97092.91;5065449;28;19963;-69
2023/12/19 12:07:39;;;;;;;;;;;;;;;6.58;96.53;97096.38;5065108;28;19959;-69
2023/12/19 12:10:06;;;;;;;;;;;;;;;6.36;100.00;97105.81;5065326;28;19961;-74
2023/12/19 12:12:33;;;;;;;;;;;;;;;6.22;98.10;97078.75;5065279;28;19955;-74
2023/12/19 12:15:06;;;;;;;;;;;;;;;6.08;98.29;97074.28;5065256;28;20047;-74
2023/12/19 12:17:33;;;;;;;;;;;;;;;5.96;99.99;97065.25;5065221;28;19950;-74
2023/12/19 12:19:59;;;;;;;;;;;;;;;5.90;99.63;97059.75;5064525;28;19956;-74
2023/12/19 12:22:25;;;;;;;;;;;;;;;5.90;100.00;97064.94;5064720;28;19966;-73
2023/12/19 12:24:54;;;;;;;;;;;;;;;5.92;100.00;97064.75;5065139;28;19959;-74
2023/12/19 12:27:20;;;;;;;;;;;;;;;5.93;100.00;97062.97;5064666;28;20114;-74
2023/12/19 12:29:46;;;;;;;;;;;;;;;5.90;100.00;97071.94;5064850;28;19993;-71
2023/12/19 12:32:12;;;;;;;;;;;;;;;5.84;100.00;97068.25;5064687;28;19960;-70
2023/12/19 12:34:38;;;;;;;;;;;;;;;5.77;100.00;97063.88;5064643;28;19956;-70
2023/12/19 12:37:05;;;;;;;;;;;;;;;5.70;100.00;97054.16;5064654;28;20131;-70
2023/12/19 12:39:31;;;;;;;;;;;;;;;5.68;100.00;97057.91;5064648;28;19965;-70
2023/12/19 12:42:03;;;;;;;;;;;;;;;5.66;100.00;97052.06;5064844;28;19960;-69
2023/12/19 12:44:30;;;;;;;;;;;;;;;5.63;100.00;97052.44;5064778;28;20269;-71
2023/12/19 12:46:57;;;;;;;;;;;;;;;5.61;100.00;97046.59;5064660;28;19959;-69